Time;durP1;ratioP1;P1;durP2;ratioP2;P2;SDS_P1;SDS_P2;PMS_P1;PMS_P2;Temp;Humidity;BMP_temperature;BMP_pressure;BME280_temperature;BME280_humidity;BME280_pressure;Samples;Min_cycle;Max_cycle;Signal;HPM_P1;HPM_P2
2023/12/26 00:02:05;;;;;;;2.90;1.80;;;;;;;13.38;49.16;101023.95;107128;1252;22550;-54
2023/12/26 00:04:32;;;;;;;2.60;1.80;;;;;;;13.45;48.91;101034.36;107194;1253;25338;-54
2023/12/26 00:07:00;;;;;;;2.10;1.70;;;;;;;13.53;48.81;101036.59;107073;1250;25343;-54
2023/12/26 00:09:27;;;;;;;4.30;1.90;;;;;;;13.59;48.63;101039.70;106399;1257;1002957;-54
2023/12/26 00:11:55;;;;;;;2.90;1.60;;;;;;;13.66;48.55;101043.16;107104;1257;25337;-54
2023/12/26 00:14:22;;;;;;;3.10;1.80;;;;;;;13.73;48.39;101046.24;106827;1254;25351;-54
2023/12/26 00:16:49;;;;;;;1.80;1.40;;;;;;;13.80;48.25;101045.88;106938;1254;25344;-54
2023/12/26 00:19:16;;;;;;;1.30;1.20;;;;;;;13.85;48.05;101043.28;106891;1260;25478;-54
2023/12/26 00:21:43;;;;;;;2.20;1.60;;;;;;;13.91;47.86;101045.36;106835;1266;23139;-55
2023/12/26 00:24:13;;;;;;;2.60;1.90;;;;;;;13.95;47.69;101053.25;107091;1264;25391;-54
2023/12/26 00:26:40;;;;;;;1.70;1.60;;;;;;;13.99;47.53;101059.23;107202;1257;25439;-54
2023/12/26 00:29:08;;;;;;;1.50;1.30;;;;;;;14.02;47.48;101067.35;107272;1251;25347;-54
2023/12/26 00:31:39;;;;;;;2.00;1.50;;;;;;;14.04;47.25;101067.63;106373;1255;1003789;-54
2023/12/26 00:34:08;;;;;;;3.20;1.60;;;;;;;14.05;47.21;101070.39;107088;1256;25287;-54
2023/12/26 00:36:35;;;;;;;2.00;1.40;;;;;;;14.04;47.19;101072.33;107070;1261;25427;-54
2023/12/26 00:39:03;;;;;;;2.00;1.80;;;;;;;14.04;47.02;101080.71;107105;1253;25353;-53
2023/12/26 00:41:31;;;;;;;2.00;1.50;;;;;;;14.02;47.03;101082.67;107118;1256;25353;-54
2023/12/26 00:43:57;;;;;;;1.30;1.20;;;;;;;14.01;46.99;101088.31;107083;1256;25356;-54
2023/12/26 00:46:25;;;;;;;1.70;1.60;;;;;;;13.99;46.91;101104.05;107230;1253;25366;-54
2023/12/26 00:48:52;;;;;;;1.60;1.40;;;;;;;13.96;46.82;101106.08;107133;1256;25327;-54
2023/12/26 00:51:19;;;;;;;2.10;1.70;;;;;;;13.92;46.79;101095.90;107052;1257;23889;-54
2023/12/26 00:53:46;;;;;;;1.40;1.30;;;;;;;13.86;46.74;101102.70;107070;1255;25290;-54
2023/12/26 00:56:13;;;;;;;2.50;2.10;;;;;;;13.80;46.81;101100.45;107105;1263;25411;-54
2023/12/26 00:58:42;;;;;;;2.80;2.00;;;;;;;13.74;46.77;101110.74;107119;1251;22527;-54
2023/12/26 01:01:09;;;;;;;2.10;1.70;;;;;;;13.68;46.87;101108.83;107192;1256;25338;-54
2023/12/26 01:03:36;;;;;;;2.20;1.80;;;;;;;13.61;46.92;101110.08;106426;1253;1002560;-54
2023/12/26 01:06:03;;;;;;;1.90;1.50;;;;;;;13.54;47.08;101106.44;106885;1261;25363;-54
2023/12/26 01:08:30;;;;;;;2.20;1.70;;;;;;;13.47;47.19;101104.02;106421;1253;1002976;-54
2023/12/26 01:10:58;;;;;;;1.70;1.50;;;;;;;13.43;47.37;101111.11;107065;1263;24249;-54
2023/12/26 01:13:26;;;;;;;1.70;1.50;;;;;;;13.37;47.40;101110.75;107276;1256;25335;-54
2023/12/26 01:15:53;;;;;;;2.00;1.60;;;;;;;13.32;47.57;101109.85;106978;1257;25478;-54
2023/12/26 01:18:20;;;;;;;2.20;1.50;;;;;;;13.28;47.64;101105.10;107019;1269;25324;-53
2023/12/26 01:20:48;;;;;;;1.70;1.60;;;;;;;13.24;47.70;101098.58;106815;1270;25328;-55
2023/12/26 01:23:15;;;;;;;2.50;1.50;;;;;;;13.21;47.75;101096.38;106995;1265;25398;-55
2023/12/26 01:25:43;;;;;;;2.10;1.50;;;;;;;13.21;47.76;101094.83;106981;1253;25475;-55
2023/12/26 01:28:10;;;;;;;1.80;1.60;;;;;;;13.19;47.72;101087.75;106886;1267;25356;-54
2023/12/26 01:30:41;;;;;;;2.10;1.60;;;;;;;13.19;47.75;101090.00;107162;1256;25338;-54
2023/12/26 01:33:08;;;;;;;4.00;2.00;;;;;;;13.20;47.62;101088.24;107168;1256;25325;-54
2023/12/26 01:35:35;;;;;;;1.80;1.60;;;;;;;13.20;47.57;101092.07;107071;1256;25379;-54
2023/12/26 01:38:03;;;;;;;1.50;1.40;;;;;;;13.18;47.41;101104.31;107188;1266;25338;-54
2023/12/26 01:40:30;;;;;;;1.90;1.70;;;;;;;13.14;47.18;101111.91;107014;1263;22573;-54
2023/12/26 01:42:57;;;;;;;1.90;1.70;;;;;;;13.13;47.09;101118.58;106843;1254;22534;-53
2023/12/26 01:45:24;;;;;;;2.20;1.60;;;;;;;13.09;47.16;101114.99;106954;1254;25395;-53
2023/12/26 01:47:55;;;;;;;2.20;1.80;;;;;;;13.03;47.26;101114.09;107132;1257;25372;-53
2023/12/26 01:50:23;;;;;;;1.70;1.40;;;;;;;12.95;47.50;101124.73;107113;1256;22643;-54
2023/12/26 01:52:51;;;;;;;1.70;1.60;;;;;;;12.87;47.71;101130.15;106809;1259;25481;-54
2023/12/26 01:55:18;;;;;;;1.40;1.20;;;;;;;12.83;47.95;101137.91;106883;1253;24273;-53
2023/12/26 01:57:45;;;;;;;2.70;1.70;;;;;;;12.80;48.04;101147.56;107017;1256;25481;-53
2023/12/26 02:00:13;;;;;;;2.30;1.50;;;;;;;12.79;48.16;101158.77;106972;1254;25367;-53
2023/12/26 02:02:42;;;;;;;3.70;1.50;;;;;;;12.77;48.24;101170.45;106745;1257;25372;-54
2023/12/26 02:05:10;;;;;;;2.40;1.60;;;;;;;12.77;48.28;101168.73;107233;1256;24209;-54
2023/12/26 02:07:37;;;;;;;1.90;1.50;;;;;;;12.77;48.26;101167.14;106637;1260;332320;-54
2023/12/26 02:10:06;;;;;;;1.70;1.50;;;;;;;12.77;48.30;101171.85;106727;1267;25408;-54
2023/12/26 02:12:33;;;;;;;2.00;1.70;;;;;;;12.78;48.35;101178.96;106729;1271;22548;-54
2023/12/26 02:15:01;;;;;;;3.40;2.20;;;;;;;12.77;48.56;101178.11;106693;1269;25353;-54
2023/12/26 02:17:29;;;;;;;2.30;2.00;;;;;;;12.78;48.66;101179.48;106924;1255;22613;-54
2023/12/26 02:19:57;;;;;;;2.10;1.80;;;;;;;12.78;48.77;101181.21;106439;1275;25331;-54
2023/12/26 02:22:24;;;;;;;3.00;1.80;;;;;;;12.80;48.81;101185.87;106766;1267;25389;-54
2023/12/26 02:24:51;;;;;;;9.30;3.00;;;;;;;12.82;49.05;101188.96;106748;1259;25389;-54
2023/12/26 02:27:20;;;;;;;4.60;2.30;;;;;;;12.83;49.24;101188.23;106719;1272;25472;-54
2023/12/26 02:29:49;;;;;;;7.20;2.60;;;;;;;12.84;49.35;101185.77;106485;1262;22522;-54
2023/12/26 02:32:23;;;;;;;3.90;2.20;;;;;;;12.86;49.31;101184.33;106777;1267;22652;-54
2023/12/26 02:34:54;;;;;;;7.80;2.20;;;;;;;12.87;49.20;101179.96;106713;1256;25345;-54
2023/12/26 02:37:22;;;;;;;3.50;2.00;;;;;;;12.88;49.06;101176.80;106778;1261;25344;-54
2023/12/26 02:39:50;;;;;;;2.50;1.80;;;;;;;12.90;48.97;101178.14;105929;1270;1002982;-54
2023/12/26 02:42:18;;;;;;;3.50;1.70;;;;;;;12.90;49.01;101177.80;107015;1262;25363;-55
2023/12/26 02:44:45;;;;;;;3.40;2.10;;;;;;;12.90;48.91;101176.06;107099;1253;22747;-53
2023/12/26 02:47:12;;;;;;;2.00;1.80;;;;;;;12.90;48.89;101179.69;107246;1254;25341;-54
2023/12/26 02:49:40;;;;;;;3.50;2.10;;;;;;;12.90;48.87;101182.14;106397;1256;1002948;-54
2023/12/26 02:52:07;;;;;;;3.20;2.00;;;;;;;12.90;48.87;101184.58;106413;1255;1002522;-53
2023/12/26 02:54:35;;;;;;;4.70;2.10;;;;;;;12.90;48.94;101185.27;107114;1260;22531;-54
2023/12/26 02:57:02;;;;;;;2.10;1.70;;;;;;;12.90;48.82;101182.49;107186;1260;25362;-53
2023/12/26 02:59:29;;;;;;;4.50;2.20;;;;;;;12.90;48.83;101184.07;106831;1267;25362;-54
2023/12/26 03:01:58;;;;;;;2.10;1.80;;;;;;;12.89;48.78;101184.96;106482;1253;1002827;-54
2023/12/26 03:04:26;;;;;;;2.60;2.20;;;;;;;12.88;48.98;101189.15;107142;1266;22680;-54
2023/12/26 03:06:53;;;;;;;4.00;2.10;;;;;;;12.87;48.74;101192.30;106771;1258;25331;-53
2023/12/26 03:09:22;;;;;;;3.40;2.30;;;;;;;12.86;48.61;101190.24;107037;1253;22529;-54
2023/12/26 03:11:49;;;;;;;3.90;2.30;;;;;;;12.85;48.60;101192.20;106916;1259;22523;-54
2023/12/26 03:14:16;;;;;;;9.40;2.30;;;;;;;12.84;48.63;101192.05;106776;1266;25481;-54
2023/12/26 03:16:43;;;;;;;5.40;2.10;;;;;;;12.83;48.58;101193.98;107148;1266;22521;-53
2023/12/26 03:19:10;;;;;;;3.00;2.00;;;;;;;12.80;48.70;101186.58;106819;1271;25362;-53
2023/12/26 03:21:38;;;;;;;2.60;2.10;;;;;;;12.77;48.78;101192.39;107124;1253;25337;-53
2023/12/26 03:24:05;;;;;;;2.30;1.60;;;;;;;12.75;48.83;101200.10;106403;1254;1003369;-53
2023/12/26 03:26:34;;;;;;;2.90;2.00;;;;;;;12.72;49.08;101201.04;106925;1266;22609;-54
2023/12/26 03:29:01;;;;;;;2.50;1.90;;;;;;;12.69;49.08;101216.08;106154;1254;1002938;-54
2023/12/26 03:31:31;;;;;;;3.80;2.10;;;;;;;12.67;49.17;101221.71;106686;1264;24323;-54
2023/12/26 03:33:58;;;;;;;8.10;3.10;;;;;;;12.65;49.04;101226.98;107031;1257;25328;-54
2023/12/26 03:36:25;;;;;;;10.90;2.80;;;;;;;12.62;49.31;101232.77;107086;1257;25414;-54
2023/12/26 03:38:52;;;;;;;4.50;2.50;;;;;;;12.60;49.92;101227.61;106838;1258;25324;-54
2023/12/26 03:41:19;;;;;;;4.20;2.10;;;;;;;12.59;50.30;101220.47;107122;1257;25446;-54
2023/12/26 03:43:46;;;;;;;5.80;3.00;;;;;;;12.59;50.53;101221.35;107112;1257;22572;-53
2023/12/26 03:46:13;;;;;;;4.40;2.60;;;;;;;12.60;50.66;101215.06;107098;1253;25449;-53
2023/12/26 03:48:40;;;;;;;4.10;1.80;;;;;;;12.59;50.63;101215.41;106950;1259;25478;-54
2023/12/26 03:51:09;;;;;;;4.10;2.30;;;;;;;12.58;50.65;101222.25;107063;1260;22532;-53
2023/12/26 03:53:36;;;;;;;2.10;1.90;;;;;;;12.59;50.67;101229.73;107071;1258;25363;-55
2023/12/26 03:56:03;;;;;;;2.90;2.30;;;;;;;12.58;50.65;101236.85;107111;1256;24257;-53
2023/12/26 03:58:31;;;;;;;2.00;1.80;;;;;;;12.59;50.52;101241.90;107155;1253;25325;-53
2023/12/26 04:00:58;;;;;;;4.50;2.90;;;;;;;12.59;50.46;101235.77;106996;1257;25363;-53
2023/12/26 04:03:25;;;;;;;2.70;1.90;;;;;;;12.59;50.32;101238.91;106900;1259;25372;-53
2023/12/26 04:05:52;;;;;;;4.90;2.10;;;;;;;12.58;50.29;101238.78;106731;1267;25359;-54
2023/12/26 04:08:19;;;;;;;3.60;2.40;;;;;;;12.57;50.29;101250.63;107196;1266;22520;-53
2023/12/26 04:10:46;;;;;;;2.10;1.80;;;;;;;12.56;50.26;101262.32;106787;1269;25356;-53
2023/12/26 04:13:13;;;;;;;6.10;1.80;;;;;;;12.55;50.22;101271.58;107104;1253;25497;-53
2023/12/26 04:15:41;;;;;;;2.60;1.80;;;;;;;12.47;50.23;101277.67;106918;1259;25337;-53
2023/12/26 04:18:09;;;;;;;3.10;2.10;;;;;;;12.36;50.30;101273.55;106956;1254;25488;-53
2023/12/26 04:20:36;;;;;;;3.00;1.80;;;;;;;12.31;50.44;101282.89;106971;1257;25337;-53
2023/12/26 04:23:04;;;;;;;3.60;2.10;;;;;;;12.30;50.49;101298.22;107118;1256;25405;-53
2023/12/26 04:25:30;;;;;;;2.20;1.70;;;;;;;12.30;50.47;101305.68;107183;1257;25338;-53
2023/12/26 04:27:58;;;;;;;5.00;2.20;;;;;;;12.30;50.56;101305.34;107064;1254;25380;-53
2023/12/26 04:30:25;;;;;;;3.00;1.80;;;;;;;12.25;50.58;101303.88;107067;1256;22524;-53
2023/12/26 04:32:53;;;;;;;2.50;1.80;;;;;;;12.22;50.78;101306.16;107148;1257;25372;-53
2023/12/26 04:35:20;;;;;;;1.90;1.50;;;;;;;12.22;50.80;101310.86;106854;1256;25338;-53
2023/12/26 04:37:48;;;;;;;3.70;2.00;;;;;;;12.21;50.77;101311.95;106404;1260;1003603;-54
2023/12/26 04:40:15;;;;;;;2.70;2.30;;;;;;;12.19;50.82;101311.48;107031;1260;25405;-53
2023/12/26 04:42:43;;;;;;;2.60;1.90;;;;;;;12.20;50.85;101314.23;107091;1256;25356;-53
2023/12/26 04:45:11;;;;;;;4.40;2.10;;;;;;;12.21;50.86;101312.98;106797;1259;25487;-53
2023/12/26 04:47:38;;;;;;;2.30;1.80;;;;;;;12.23;50.80;101318.35;107038;1259;25369;-53
2023/12/26 04:50:06;;;;;;;2.00;1.60;;;;;;;12.24;50.80;101316.23;107040;1260;25344;-53
2023/12/26 04:52:33;;;;;;;3.00;2.00;;;;;;;12.26;50.82;101312.90;106785;1259;25509;-53
2023/12/26 04:55:01;;;;;;;1.80;1.50;;;;;;;12.27;50.79;101316.87;106827;1272;25341;-53
2023/12/26 04:57:29;;;;;;;1.80;1.50;;;;;;;12.31;50.71;101316.80;106941;1260;25484;-53
2023/12/26 04:59:56;;;;;;;2.60;1.60;;;;;;;12.32;50.69;101311.73;106947;1259;25362;-53
2023/12/26 05:02:24;;;;;;;2.90;1.90;;;;;;;12.32;50.81;101316.09;107160;1263;24262;-53
2023/12/26 05:04:52;;;;;;;2.20;1.70;;;;;;;12.32;50.84;101313.83;107100;1256;25344;-53
2023/12/26 05:07:19;;;;;;;2.50;2.00;;;;;;;12.31;50.83;101309.83;107069;1253;25484;-54
2023/12/26 05:09:46;;;;;;;2.10;1.60;;;;;;;12.28;50.94;101314.59;107056;1253;22610;-53
2023/12/26 05:12:13;;;;;;;2.10;1.70;;;;;;;12.25;51.09;101313.80;106878;1260;25337;-53
2023/12/26 05:14:40;;;;;;;2.50;1.60;;;;;;;12.21;51.28;101310.89;106752;1258;25488;-53
2023/12/26 05:17:08;;;;;;;1.40;1.30;;;;;;;12.20;51.37;101315.09;107214;1257;25356;-53
2023/12/26 05:19:35;;;;;;;1.60;1.40;;;;;;;12.16;51.53;101314.14;107075;1256;23104;-53
2023/12/26 05:22:03;;;;;;;1.50;1.40;;;;;;;12.12;51.59;101317.16;107003;1260;23072;-54
2023/12/26 05:24:29;;;;;;;1.70;1.60;;;;;;;12.11;51.62;101319.27;107157;1254;22522;-53
2023/12/26 05:27:11;;;;;;;1.60;1.40;;;;;;;12.15;51.59;101322.16;106970;1260;25414;-53
2023/12/26 05:29:43;;;;;;;1.70;1.50;;;;;;;12.18;51.51;101322.80;106306;1256;1003358;-54
2023/12/26 05:32:11;;;;;;;2.20;2.00;;;;;;;12.20;51.32;101323.27;106905;1259;22524;-53
2023/12/26 05:34:38;;;;;;;2.40;1.80;;;;;;;12.22;51.26;101323.58;107115;1263;25338;-53
2023/12/26 05:37:05;;;;;;;1.40;1.20;;;;;;;12.25;51.19;101328.75;106847;1260;25456;-54
2023/12/26 05:39:33;;;;;;;1.70;1.60;;;;;;;12.27;51.19;101333.05;106754;1272;25393;-53
2023/12/26 05:42:02;;;;;;;1.60;1.50;;;;;;;12.28;51.20;101332.67;106833;1267;25414;-54
2023/12/26 05:44:29;;;;;;;1.90;1.70;;;;;;;12.26;51.21;101330.98;107224;1254;23294;-54
2023/12/26 05:46:57;;;;;;;1.40;1.30;;;;;;;12.19;51.06;101335.63;107045;1258;25398;-54
2023/12/26 05:49:24;;;;;;;2.50;1.90;;;;;;;12.08;51.26;101338.29;106945;1254;25414;-55
2023/12/26 05:51:53;;;;;;;1.80;1.70;;;;;;;11.97;51.64;101341.45;106314;1259;1002692;-54
2023/12/26 05:54:20;;;;;;;1.70;1.30;;;;;;;11.90;52.01;101347.14;106825;1267;25461;-54
2023/12/26 05:56:48;;;;;;;1.60;1.40;;;;;;;11.86;52.14;101354.00;106756;1273;25335;-54
2023/12/26 05:59:15;;;;;;;1.80;1.40;;;;;;;11.82;52.08;101357.55;107167;1260;25362;-53
2023/12/26 06:01:46;;;;;;;2.00;1.60;;;;;;;11.76;52.20;101367.02;106914;1258;25388;-53
2023/12/26 06:04:13;;;;;;;3.00;1.60;;;;;;;11.72;52.48;101380.83;106664;1262;22527;-53
2023/12/26 06:06:40;;;;;;;10.30;2.40;;;;;;;11.76;52.40;101397.27;106858;1261;24270;-54
2023/12/26 06:09:08;;;;;;;8.30;3.10;;;;;;;11.83;52.27;101396.64;107082;1256;24192;-53
2023/12/26 06:11:36;;;;;;;7.30;2.80;;;;;;;11.87;52.35;101397.25;106875;1257;25297;-54
2023/12/26 06:14:05;;;;;;;6.90;2.50;;;;;;;11.92;52.37;101395.63;106923;1259;25338;-54
2023/12/26 06:16:32;;;;;;;3.30;2.30;;;;;;;11.99;52.29;101396.70;107014;1257;22528;-53
2023/12/26 06:18:59;;;;;;;4.30;2.60;;;;;;;12.06;52.12;101397.45;106136;1256;1002899;-53
2023/12/26 06:21:26;;;;;;;4.80;2.20;;;;;;;12.13;52.27;101402.71;106853;1266;25453;-53
2023/12/26 06:23:53;;;;;;;3.90;2.70;;;;;;;12.19;52.39;101400.16;107153;1258;23980;-54
2023/12/26 06:26:21;;;;;;;8.50;2.60;;;;;;;12.27;52.37;101403.00;107141;1257;25328;-54
2023/12/26 06:28:50;;;;;;;7.80;2.40;;;;;;;12.33;52.32;101403.05;107071;1256;25434;-54
2023/12/26 06:31:18;;;;;;;2.10;1.50;;;;;;;12.37;52.27;101402.27;106999;1259;25414;-53
2023/12/26 06:33:46;;;;;;;3.60;1.70;;;;;;;12.40;52.52;101400.13;106244;1267;1003125;-54
2023/12/26 06:36:13;;;;;;;4.30;1.70;;;;;;;12.44;52.71;101399.19;107203;1257;25481;-54
2023/12/26 06:38:40;;;;;;;2.00;1.80;;;;;;;12.50;52.76;101403.07;107097;1257;25356;-54
2023/12/26 06:41:08;;;;;;;2.00;1.70;;;;;;;12.57;52.78;101404.84;107163;1257;25405;-54
2023/12/26 06:43:35;;;;;;;1.70;1.40;;;;;;;12.65;52.78;101408.85;106951;1257;23867;-53
2023/12/26 06:46:05;;;;;;;2.20;1.30;;;;;;;12.74;52.68;101417.91;107016;1257;25404;-53
2023/12/26 06:48:35;;;;;;;1.30;1.20;;;;;;;12.83;52.60;101421.38;107105;1262;22645;-54
2023/12/26 06:51:07;;;;;;;1.70;1.50;;;;;;;12.95;52.52;101428.61;106931;1256;22539;-54
2023/12/26 06:53:35;;;;;;;1.50;1.30;;;;;;;13.09;52.47;101443.67;107127;1260;25372;-53
2023/12/26 06:56:04;;;;;;;4.70;2.40;;;;;;;13.22;52.35;101448.98;106396;1254;1002731;-54
2023/12/26 06:58:31;;;;;;;6.50;2.80;;;;;;;13.34;52.22;101452.71;107020;1253;22536;-54
2023/12/26 07:00:58;;;;;;;6.60;2.50;;;;;;;13.41;52.22;101457.42;106227;1268;1003447;-53
2023/12/26 07:03:25;;;;;;;3.00;1.80;;;;;;;13.51;52.19;101451.81;106745;1262;25411;-54
2023/12/26 07:05:52;;;;;;;2.70;1.80;;;;;;;13.58;52.04;101454.61;107077;1266;25367;-54
2023/12/26 07:08:20;;;;;;;3.20;1.90;;;;;;;13.64;52.01;101456.03;106989;1266;25352;-54
2023/12/26 07:10:47;;;;;;;4.30;2.10;;;;;;;13.71;51.98;101448.20;107132;1263;25334;-54
2023/12/26 07:13:14;;;;;;;2.90;1.80;;;;;;;13.76;51.77;101453.15;106847;1259;25372;-54
2023/12/26 07:15:42;;;;;;;3.60;1.50;;;;;;;13.82;51.76;101448.98;106690;1267;25414;-54
2023/12/26 07:18:10;;;;;;;3.70;2.00;;;;;;;13.92;51.70;101451.02;107156;1263;25455;-54
2023/12/26 07:20:37;;;;;;;5.70;2.40;;;;;;;13.99;51.51;101459.20;106885;1256;24271;-53
2023/12/26 07:23:04;;;;;;;1.80;1.70;;;;;;;14.06;51.42;101474.03;107089;1261;25337;-54
2023/12/26 07:25:31;;;;;;;5.40;2.40;;;;;;;14.13;51.31;101475.96;106868;1259;24609;-54
2023/12/26 07:27:58;;;;;;;7.40;2.60;;;;;;;14.19;51.14;101474.05;106725;1274;25319;-54
2023/12/26 07:30:25;;;;;;;3.80;1.80;;;;;;;14.24;51.11;101464.67;106901;1258;25488;-54
2023/12/26 07:32:52;;;;;;;3.30;2.20;;;;;;;14.29;51.09;101461.42;107090;1266;22520;-53
2023/12/26 07:35:20;;;;;;;3.20;2.00;;;;;;;14.34;51.02;101458.16;107208;1256;25405;-54
2023/12/26 07:37:47;;;;;;;3.20;1.60;;;;;;;14.39;51.05;101457.34;107212;1256;25318;-54
2023/12/26 07:40:14;;;;;;;4.10;1.80;;;;;;;14.43;50.91;101461.77;106993;1261;22583;-54
2023/12/26 07:42:41;;;;;;;2.90;1.80;;;;;;;14.48;50.70;101466.70;106680;1273;25359;-54
2023/12/26 07:45:09;;;;;;;3.60;2.10;;;;;;;14.52;50.68;101463.27;107082;1256;25346;-54
2023/12/26 07:47:36;;;;;;;2.30;2.10;;;;;;;14.57;50.53;101464.53;106934;1260;25356;-54
2023/12/26 07:50:04;;;;;;;2.50;2.20;;;;;;;14.61;50.46;101469.30;106782;1259;25353;-54
2023/12/26 07:52:35;;;;;;;2.40;1.80;;;;;;;14.66;50.39;101469.69;107074;1257;25362;-53
2023/12/26 07:55:02;;;;;;;2.70;2.00;;;;;;;14.72;50.34;101468.50;107015;1257;25408;-54
2023/12/26 07:57:30;;;;;;;3.10;1.80;;;;;;;14.77;50.30;101467.14;107133;1256;25336;-54
2023/12/26 07:59:59;;;;;;;2.50;1.80;;;;;;;14.82;50.25;101468.56;107115;1257;25786;-54
2023/12/26 08:02:27;;;;;;;6.40;2.50;;;;;;;14.88;50.16;101475.73;107152;1259;25319;-54
2023/12/26 08:04:54;;;;;;;5.50;2.20;;;;;;;14.92;50.14;101477.89;106386;1263;1003075;-53
2023/12/26 08:07:21;;;;;;;4.40;2.50;;;;;;;14.96;50.23;101481.09;107028;1254;25336;-55
2023/12/26 08:09:48;;;;;;;5.30;2.40;;;;;;;14.98;50.27;101482.45;107073;1263;25452;-54
2023/12/26 08:12:15;;;;;;;4.30;1.80;;;;;;;14.99;50.27;101474.89;107013;1257;25343;-55
2023/12/26 08:14:42;;;;;;;2.90;2.00;;;;;;;15.00;50.44;101479.75;107026;1257;25589;-54
2023/12/26 08:17:09;;;;;;;7.00;2.30;;;;;;;15.03;50.35;101492.60;107186;1256;25338;-55
2023/12/26 08:19:37;;;;;;;5.20;2.00;;;;;;;15.04;50.30;101498.52;106856;1256;25337;-53
2023/12/26 08:22:04;;;;;;;5.50;2.30;;;;;;;15.03;50.35;101492.59;107095;1257;25462;-54
2023/12/26 08:24:32;;;;;;;8.30;2.20;;;;;;;15.01;50.42;101489.85;107441;1267;23319;-54
2023/12/26 08:27:00;;;;;;;8.50;2.60;;;;;;;14.98;50.47;101494.48;107189;1270;22577;-54
2023/12/26 08:29:26;;;;;;;4.70;2.40;;;;;;;14.93;50.50;101498.29;107229;1257;25337;-53
2023/12/26 08:31:53;;;;;;;5.20;2.10;;;;;;;14.88;50.78;101495.48;107002;1257;25416;-53
2023/12/26 08:34:21;;;;;;;6.10;2.90;;;;;;;14.82;51.19;101492.67;107107;1275;25376;-54
2023/12/26 08:36:48;;;;;;;9.70;3.00;;;;;;;14.79;51.51;101494.68;107009;1259;23863;-53
2023/12/26 08:39:16;;;;;;;9.10;2.70;;;;;;;14.77;51.62;101500.33;107129;1261;23233;-54
2023/12/26 08:41:43;;;;;;;5.40;1.80;;;;;;;14.75;51.79;101494.80;107171;1257;25421;-53
2023/12/26 08:44:10;;;;;;;6.30;2.20;;;;;;;14.72;51.94;101502.37;107115;1257;23334;-53
2023/12/26 08:46:39;;;;;;;3.00;2.20;;;;;;;14.72;52.01;101497.16;107005;1257;22527;-53
2023/12/26 08:49:06;;;;;;;6.50;2.10;;;;;;;14.75;52.05;101495.30;106875;1259;22532;-53
2023/12/26 08:51:39;;;;;;;4.90;2.50;;;;;;;14.81;51.77;101493.77;107070;1265;22755;-53
2023/12/26 08:54:06;;;;;;;3.40;2.00;;;;;;;14.89;51.75;101498.95;107307;1256;22708;-53
2023/12/26 08:56:38;;;;;;;5.20;2.30;;;;;;;14.96;51.55;101497.16;106932;1262;25399;-53
2023/12/26 08:59:05;;;;;;;8.40;2.30;;;;;;;15.03;51.54;101491.02;107213;1257;22523;-53
2023/12/26 09:01:32;;;;;;;6.80;2.30;;;;;;;15.12;51.32;101489.89;107224;1257;23864;-53
2023/12/26 09:03:59;;;;;;;8.40;2.40;;;;;;;15.20;51.15;101488.61;106617;1254;1003203;-53
2023/12/26 09:06:26;;;;;;;2.90;1.90;;;;;;;15.26;50.95;101485.64;107055;1267;23443;-53
2023/12/26 09:08:54;;;;;;;5.20;1.80;;;;;;;15.29;50.96;101475.42;107291;1256;23872;-54
2023/12/26 09:11:21;;;;;;;8.90;2.70;;;;;;;15.31;50.85;101474.47;107029;1251;23873;-54
2023/12/26 09:13:48;;;;;;;5.70;2.30;;;;;;;15.32;50.61;101476.35;106913;1259;25406;-54
2023/12/26 09:16:15;;;;;;;4.00;2.80;;;;;;;15.36;50.64;101477.13;107000;1262;24174;-54
2023/12/26 09:18:43;;;;;;;13.30;3.30;;;;;;;15.40;50.45;101480.32;107218;1259;25506;-54
2023/12/26 09:21:10;;;;;;;4.70;2.10;;;;;;;15.43;50.39;101480.08;107172;1274;25356;-54
2023/12/26 09:23:37;;;;;;;3.90;2.10;;;;;;;15.42;50.39;101478.17;107319;1257;25379;-53
2023/12/26 09:26:04;;;;;;;3.60;2.00;;;;;;;15.39;50.45;101471.08;106896;1274;25378;-53
2023/12/26 09:28:32;;;;;;;8.30;2.40;;;;;;;15.40;50.37;101466.14;107247;1256;25382;-54
2023/12/26 09:30:59;;;;;;;6.30;2.10;;;;;;;15.44;50.45;101464.84;107091;1270;25449;-54
2023/12/26 09:33:27;;;;;;;6.30;2.10;;;;;;;15.46;50.40;101469.14;107202;1267;25369;-52
2023/12/26 09:35:54;;;;;;;3.30;1.90;;;;;;;15.49;50.59;101464.67;107226;1267;25337;-53
2023/12/26 09:38:21;;;;;;;4.70;2.50;;;;;;;15.50;50.53;101464.13;107128;1266;25450;-53
2023/12/26 09:40:48;;;;;;;4.10;2.40;;;;;;;15.53;50.49;101464.05;106775;1274;25363;-54
2023/12/26 09:43:15;;;;;;;4.90;2.50;;;;;;;15.53;50.55;101460.02;106961;1269;25293;-53
2023/12/26 09:45:42;;;;;;;4.40;2.60;;;;;;;15.54;50.52;101458.04;106848;1267;25490;-53
2023/12/26 09:48:11;;;;;;;6.00;2.70;;;;;;;15.56;50.49;101451.89;107071;1266;23878;-53
2023/12/26 09:50:38;;;;;;;7.10;3.30;;;;;;;15.57;50.50;101452.02;107065;1256;23900;-53
2023/12/26 09:53:07;;;;;;;3.70;2.80;;;;;;;15.59;50.65;101454.05;106770;1274;25443;-53
2023/12/26 09:55:34;;;;;;;6.30;2.90;;;;;;;15.62;50.99;101451.52;107003;1268;25373;-53
2023/12/26 09:58:02;;;;;;;8.70;3.80;;;;;;;15.64;51.35;101444.27;107076;1265;25484;-54
2023/12/26 10:00:29;;;;;;;4.20;2.60;;;;;;;15.68;51.50;101435.75;107009;1266;25213;-53
2023/12/26 10:02:57;;;;;;;8.50;3.10;;;;;;;15.74;51.40;101432.92;106979;1267;25336;-53
2023/12/26 10:05:25;;;;;;;7.90;3.30;;;;;;;15.84;51.39;101437.31;107158;1266;22522;-53
2023/12/26 10:07:53;;;;;;;7.70;3.30;;;;;;;15.97;51.38;101426.92;106932;1267;22622;-53
2023/12/26 10:10:20;;;;;;;6.30;3.30;;;;;;;16.08;51.15;101425.50;107130;1267;25356;-53
2023/12/26 10:12:48;;;;;;;4.80;3.20;;;;;;;16.18;50.94;101430.91;107119;1267;25334;-53
2023/12/26 10:15:15;;;;;;;4.50;3.10;;;;;;;16.26;50.62;101437.47;107338;1271;25232;-53
2023/12/26 10:17:45;;;;;;;5.10;3.00;;;;;;;16.28;50.53;101436.17;107063;1254;25331;-53
2023/12/26 10:20:15;;;;;;;4.40;2.60;;;;;;;16.25;50.62;101428.05;107201;1257;22520;-53
2023/12/26 10:22:43;;;;;;;4.60;3.00;;;;;;;16.25;50.75;101425.09;107519;1267;25362;-54
2023/12/26 10:25:12;;;;;;;4.80;3.10;;;;;;;16.27;50.87;101426.25;107283;1267;24212;-54
2023/12/26 10:27:39;;;;;;;6.80;2.90;;;;;;;16.31;50.71;101434.14;107263;1256;24333;-53
2023/12/26 10:30:07;;;;;;;5.50;2.80;;;;;;;16.33;50.52;101432.16;106812;1272;24222;-53
2023/12/26 10:32:35;;;;;;;4.00;2.30;;;;;;;16.34;50.45;101432.85;106857;1258;24281;-52
2023/12/26 10:35:15;;;;;;;6.40;2.90;;;;;;;16.34;50.55;101432.50;106782;1258;25328;-52
2023/12/26 10:37:44;;;;;;;3.20;2.60;;;;;;;16.50;50.18;101432.11;107031;1270;22530;-53
2023/12/26 10:40:12;;;;;;;6.40;2.90;;;;;;;16.55;50.04;101427.23;107119;1261;22582;-53
2023/12/26 10:42:39;;;;;;;5.50;2.90;;;;;;;16.55;50.03;101431.94;107265;1256;23297;-53
2023/12/26 10:45:07;;;;;;;6.50;3.30;;;;;;;16.55;49.91;101432.11;106947;1257;24247;-53
2023/12/26 10:47:34;;;;;;;8.10;3.20;;;;;;;16.55;49.95;101428.96;106739;1259;22545;-53
2023/12/26 10:50:03;;;;;;;6.30;2.80;;;;;;;16.55;49.90;101428.98;106817;1259;24199;-53
2023/12/26 10:52:31;;;;;;;7.00;2.90;;;;;;;16.55;49.81;101425.46;106824;1256;24371;-54
2023/12/26 10:55:00;;;;;;;4.80;3.40;;;;;;;16.57;49.83;101425.57;106886;1268;25399;-52
2023/12/26 10:57:34;;;;;;;8.50;3.60;;;;;;;16.62;49.73;101432.05;106773;1260;24182;-54
2023/12/26 13:51:45;;;;;;;6.20;3.10;;;;;;;16.66;49.60;101316.79;107052;1256;23297;-54
2023/12/26 13:54:50;;;;;;;7.30;3.40;;;;;;;16.86;49.24;101314.61;106693;1271;25416;-54
2023/12/26 13:57:56;;;;;;;6.80;3.60;;;;;;;17.02;48.95;101306.12;107046;1262;25453;-53
2023/12/26 14:01:01;;;;;;;5.50;3.20;;;;;;;17.11;48.93;101304.67;106863;1259;25370;-52
2023/12/26 14:04:07;;;;;;;6.60;4.50;;;;;;;17.21;48.67;101301.50;106789;1272;25394;-53
2023/12/26 14:07:13;;;;;;;6.00;3.60;;;;;;;17.21;48.50;101298.48;106532;1273;1003757;-53
2023/12/26 14:09:40;;;;;;;8.60;3.50;;;;;;;17.24;48.39;101298.39;107359;1270;22529;-55
2023/12/26 14:12:45;;;;;;;4.70;3.30;;;;;;;17.26;48.10;101295.65;107148;1267;25339;-55
2023/12/26 14:15:51;;;;;;;8.50;4.00;;;;;;;17.32;47.83;101283.30;107189;1257;25360;-53